Time;durP1;ratioP1;P1;durP2;ratioP2;P2;SDS_P1;SDS_P2;PMS_P1;PMS_P2;Temp;Humidity;BMP_temperature;BMP_pressure;BME280_temperature;BME280_humidity;BME280_pressure;Samples;Min_cycle;Max_cycle;Signal;HPM_P1;HPM_P2
2021/11/09 00:01:28;;;;;;;4.03;1.80;;;6.60;99.90;;;4.99;100.00;102679.00;4862609;29;20035;-80
2021/11/09 00:04:02;;;;;;;;;;;6.60;99.90;;;5.01;100.00;102692.94;4822627;29;20489;-80
2021/11/09 00:06:32;;;;;;;7.93;1.85;;;6.60;99.90;;;4.92;100.00;102683.31;4847565;29;19912;-82
2021/11/09 00:09:06;;;;;;;4.72;1.55;;;6.60;99.90;;;4.97;100.00;102691.16;4854490;29;20028;-80
2021/11/09 00:11:36;;;;;;;4.25;1.75;;;6.60;99.90;;;4.94;100.00;102692.00;4830351;29;20104;-80
2021/11/09 00:14:02;;;;;;;3.78;1.55;;;6.60;99.90;;;4.90;100.00;102686.72;4837556;29;20039;-83
2021/11/09 00:16:30;;;;;;;11.73;1.73;;;6.60;99.90;;;4.98;100.00;102703.34;4841571;29;20119;-83
2021/11/09 00:19:05;;;;;;;2.90;1.50;;;6.60;99.90;;;4.98;100.00;102705.97;4819382;29;20514;-82
2021/11/09 00:21:31;;;;;;;5.78;1.80;;;6.60;99.90;;;4.97;100.00;102701.59;4902907;29;20035;-82
2021/11/09 00:24:05;;;;;;;3.55;1.45;;;6.60;99.90;;;4.96;100.00;102704.19;4882900;29;20047;-82
2021/11/09 00:26:32;;;;;;;3.88;1.92;;;;;;;4.99;100.00;102696.38;4828716;29;20074;-83
2021/11/09 00:28:59;;;;;;;4.78;1.63;;;6.60;99.90;;;4.96;100.00;102691.16;4826057;29;20106;-83
2021/11/09 00:31:25;;;;;;;9.45;1.88;;;6.60;99.90;;;4.98;100.00;102695.50;4834978;29;20118;-83
2021/11/09 00:34:00;;;;;;;8.40;1.75;;;6.60;99.90;;;5.11;100.00;102713.03;4821407;29;20032;-83
2021/11/09 00:36:26;;;;;;;6.60;1.70;;;6.60;99.90;;;5.00;100.00;102690.31;4814023;29;20027;-82
2021/11/09 00:38:52;;;;;;;4.43;1.52;;;6.70;99.90;;;5.08;100.00;102699.09;4817143;28;20063;-83
2021/11/09 00:41:25;;;;;;;5.38;1.80;;;6.60;99.90;;;5.02;100.00;102683.38;4834643;29;20521;-83
2021/11/09 00:43:51;;;;;;;6.13;1.83;;;6.60;99.90;;;4.98;100.00;102679.84;4823050;29;20033;-83
2021/11/09 00:46:17;;;;;;;3.90;1.70;;;6.70;99.90;;;5.05;100.00;102699.91;4856128;29;20086;-83
2021/11/09 00:48:44;;;;;;;4.13;1.80;;;6.70;99.90;;;5.04;100.00;102692.97;4817958;29;20048;-83
2021/11/09 00:51:16;;;;;;;7.47;1.60;;;6.60;99.90;;;4.99;100.00;102681.63;4823358;29;24412;-83
2021/11/09 00:53:42;;;;;;;5.60;1.55;;;;;;;5.13;100.00;102703.47;4828002;29;20044;-83
2021/11/09 00:56:09;;;;;;;4.10;1.55;;;6.70;99.90;;;5.16;100.00;102702.59;4834844;29;20123;-84
2021/11/09 00:58:35;;;;;;;7.20;1.83;;;6.70;99.90;;;5.13;100.00;102693.00;4822497;29;20067;-83
2021/11/09 01:01:01;;;;;;;5.18;1.95;;;6.70;99.90;;;5.07;100.00;102677.28;4845420;29;20052;-83
2021/11/09 01:03:36;;;;;;;9.00;1.90;;;6.70;99.90;;;5.13;100.00;102682.56;4841260;28;20036;-83
2021/11/09 01:06:02;;;;;;;9.90;1.98;;;6.70;99.90;;;5.16;100.00;102689.53;4825014;29;20389;-83
2021/11/09 01:08:30;;;;;;;6.97;1.50;;;6.70;99.90;;;5.16;100.00;102691.28;4812487;29;20920;-83
2021/11/09 01:11:04;;;;;;;9.75;2.20;;;6.70;99.90;;;5.21;100.00;102694.84;4804612;29;20064;-83
2021/11/09 01:13:31;;;;;;;10.27;2.05;;;;;;;5.25;100.00;102694.00;4852060;29;20039;-83
2021/11/09 01:16:07;;;;;;;8.70;2.75;;;6.80;99.90;;;5.27;100.00;102694.84;4836719;29;20040;-83
2021/11/09 01:18:56;;;;;;;8.13;2.78;;;6.80;99.90;;;5.21;100.00;102680.03;4858788;29;20228;-83
2021/11/09 01:21:24;;;;;;;15.70;3.58;;;;;;;5.27;100.00;102687.91;4813956;29;20060;-84
2021/11/09 01:23:54;;;;;;;13.57;3.80;;;6.80;99.90;;;5.19;100.00;102678.28;4863083;29;20028;-83
2021/11/09 01:26:31;;;;;;;15.38;4.95;;;6.80;99.90;;;5.23;100.00;102683.53;4783351;29;20063;-82
2021/11/09 01:29:01;;;;;;;26.17;5.18;;;6.80;99.90;;;5.24;100.00;102680.03;4804976;29;20048;-83
2021/11/09 01:31:34;;;;;;;28.27;4.95;;;;;;;5.29;100.00;102677.44;4838739;29;20428;-85
2021/11/09 01:34:01;;;;;;;20.40;5.10;;;6.80;99.90;;;5.18;100.00;102653.00;4854564;29;20413;-82
2021/11/09 01:36:28;;;;;;;19.58;5.32;;;6.80;99.90;;;5.18;100.00;102659.09;4819779;29;20130;-84
2021/11/09 01:38:59;;;;;;;25.45;6.20;;;6.70;99.90;;;5.16;100.00;102654.72;4848835;29;20043;-85
2021/11/09 01:41:28;;;;;;;19.50;5.40;;;;;;;5.20;100.00;102659.13;4831644;29;20083;-83
2021/11/09 01:43:55;;;;;;;27.67;6.18;;;6.80;99.90;;;5.14;100.00;102645.16;4852389;29;20038;-83
2021/11/09 01:46:31;;;;;;;23.83;5.70;;;6.70;99.90;;;5.17;100.00;102659.97;4842049;29;20043;-82
2021/11/09 01:48:57;;;;;;;27.10;6.55;;;6.70;99.90;;;5.19;100.00;102667.81;4848637;29;20044;-83
2021/11/09 01:51:24;;;;;;;20.20;6.05;;;6.70;99.90;;;5.06;100.00;102649.44;4812378;29;20504;-83
2021/11/09 01:54:01;;;;;;;21.98;6.47;;;6.70;99.90;;;5.07;100.00;102656.41;4881457;28;20530;-82
2021/11/09 01:56:29;;;;;;;28.13;7.40;;;6.60;99.90;;;5.12;100.00;102662.56;4850069;29;20050;-82
2021/11/09 01:59:04;;;;;;;19.35;5.55;;;6.60;99.90;;;5.04;100.00;102648.56;4810624;29;20039;-83
2021/11/09 02:01:31;;;;;;;27.58;7.53;;;6.60;99.90;;;5.00;100.00;102654.63;4823263;29;20048;-82
2021/11/09 02:04:05;;;;;;;23.10;6.82;;;;;;;5.02;100.00;102662.47;4848269;29;20025;-83
2021/11/09 02:06:33;;;;;;;22.98;6.57;;;6.60;99.90;;;5.00;100.00;102670.28;4846201;29;20056;-82
2021/11/09 02:09:12;;;;;;;32.17;7.95;;;6.70;99.90;;;5.11;100.00;102692.13;4833516;28;20025;-82
2021/11/09 02:11:40;;;;;;;32.25;7.95;;;6.70;99.90;;;5.13;100.00;102702.59;4832103;29;20055;-83
2021/11/09 02:14:12;;;;;;;34.67;7.82;;;6.70;99.90;;;5.11;100.00;102693.88;4825908;29;20024;-82
2021/11/09 02:16:41;;;;;;;24.50;7.32;;;;;;;5.10;100.00;102692.13;4806625;28;20032;-84
2021/11/09 02:19:07;;;;;;;36.45;8.27;;;6.70;99.90;;;5.10;100.00;102698.22;4835654;29;20607;-82
2021/11/09 02:21:43;;;;;;;25.92;7.03;;;6.70;99.90;;;5.15;100.00;102711.31;4853529;29;20429;-82
2021/11/09 02:24:10;;;;;;;33.45;8.75;;;6.70;99.90;;;5.09;100.00;102701.69;4825576;29;20044;-82
2021/11/09 02:26:36;;;;;;;30.58;8.82;;;6.70;99.90;;;5.23;100.00;102714.00;4816583;29;20495;-82
2021/11/09 02:29:10;;;;;;;32.60;8.45;;;6.70;99.90;;;5.14;100.00;102696.53;4840804;29;20122;-83
2021/11/09 02:31:36;;;;;;;32.25;9.00;;;6.80;99.90;;;5.22;100.00;102696.56;4832307;29;20062;-83
2021/11/09 02:34:03;;;;;;;31.02;8.30;;;6.70;99.90;;;5.17;100.00;102683.47;4836863;29;20028;-83
2021/11/09 02:36:29;;;;;;;40.38;8.10;;;6.70;99.90;;;5.14;100.00;102686.09;4804500;29;20032;-83
2021/11/09 02:39:01;;;;;;;27.85;7.88;;;6.70;99.90;;;5.19;100.00;102691.34;4828043;29;20042;-82
2021/11/09 02:41:27;;;;;;;30.90;7.30;;;;;;;5.19;100.00;102701.78;4806099;29;20054;-83
2021/11/09 02:43:56;;;;;;;36.40;8.35;;;6.70;99.90;;;5.14;100.00;102688.69;4834147;29;20035;-82
2021/11/09 02:46:37;;;;;;;28.08;7.15;;;6.70;99.90;;;5.20;100.00;102698.28;4855954;29;20024;-82
2021/11/09 02:51:44;;;;;;;;;;;6.70;99.90;;;5.14;100.00;102686.94;4863924;29;20047;-83
2021/11/09 02:54:22;;;;;;;31.80;7.53;;;6.70;99.90;;;5.14;100.00;102683.47;4820052;29;19943;-83
2021/11/09 02:56:59;;;;;;;29.20;7.30;;;6.70;99.90;;;5.11;100.00;102673.84;4839117;29;20048;-83
2021/11/09 03:07:45;;;;;;;26.05;7.50;;;6.70;99.90;;;5.08;100.00;102684.28;4870707;29;20574;-83
2021/11/09 03:10:26;;;;;;;25.83;7.65;;;6.70;99.90;;;5.14;100.00;102705.22;4858599;29;20028;-83
2021/11/09 03:12:56;;;;;;;32.30;8.20;;;6.70;99.90;;;5.16;100.00;102706.97;4860115;29;21716;-84
2021/11/09 03:15:33;;;;;;;27.05;6.72;;;6.70;99.90;;;5.16;100.00;102713.06;4834846;29;20082;-84
2021/11/09 03:18:39;;;;;;;30.88;7.80;;;6.70;99.90;;;5.13;100.00;102711.28;4840561;29;20195;-83
2021/11/09 03:20:59;;;;;;;38.53;9.05;;;;;;;5.16;100.00;102720.88;4828584;28;20066;-83
2021/11/09 03:40:55;;;;;;;49.50;10.80;;;6.80;99.90;;;5.21;100.00;102791.47;4862537;28;20109;-83
2021/11/09 03:46:13;;;;;;;44.08;11.02;;;6.80;99.90;;;5.22;100.00;102799.28;4863002;28;20042;-83
2021/11/09 03:48:39;;;;;;;42.63;10.90;;;6.80;99.90;;;5.25;100.00;102807.19;4839733;29;20044;-83
2021/11/09 03:51:05;;;;;;;40.25;11.38;;;6.80;99.90;;;5.20;100.00;102813.22;4804553;29;20098;-83
2021/11/09 03:53:34;;;;;;;46.47;11.45;;;6.80;99.90;;;5.25;100.00;102825.47;4849352;29;20047;-82
2021/11/09 03:56:12;;;;;;;42.58;11.77;;;7.70;99.90;;;5.27;100.00;102831.56;4833093;29;20039;-83
2021/11/09 03:58:49;;;;;;;44.08;11.98;;;6.80;99.90;;;5.22;100.00;102832.38;4846515;29;20043;-82
2021/11/09 04:01:42;;;;;;;38.70;11.30;;;6.80;99.90;;;5.29;100.00;102842.00;4836312;29;20356;-82
2021/11/09 04:07:02;;;;;;;49.85;11.75;;;6.80;99.90;;;5.23;100.00;102839.38;4849589;29;20062;-82
2021/11/09 04:09:39;;;;;;;41.95;10.90;;;6.80;99.90;;;5.20;100.00;102836.72;4841206;29;20028;-82
2021/11/09 04:12:31;;;;;;;36.00;11.93;;;6.80;99.90;;;5.26;100.00;102863.75;4819136;29;20027;-82
2021/11/09 04:21:02;;;;;;;42.35;10.95;;;6.90;99.90;;;5.30;100.00;102859.47;4831166;28;20047;-82
2021/11/09 04:26:14;;;;;;;52.28;12.73;;;6.90;99.90;;;5.36;100.00;102872.59;4847579;29;20024;-82
2021/11/09 04:40:14;;;;;;;45.65;12.20;;;6.80;99.90;;;5.29;100.00;102879.50;4840594;29;20031;-83
2021/11/09 05:09:34;;;;;;;50.28;12.80;;;;;;;5.37;100.00;102916.13;4824215;28;20088;-84
2021/11/09 05:12:00;;;;;;;47.35;12.48;;;6.90;99.90;;;5.37;100.00;102916.13;4840835;29;20135;-83
2021/11/09 05:14:32;;;;;;;48.83;13.23;;;7.00;99.90;;;5.43;100.00;102936.22;4845330;28;20039;-83
2021/11/09 05:17:01;;;;;;;65.10;12.52;;;;;;;5.43;100.00;102937.09;4838682;28;20042;-83
2021/11/09 05:19:28;;;;;;;54.53;13.43;;;7.00;99.90;;;5.40;100.00;102934.47;4849631;29;20036;-83
2021/11/09 05:21:57;;;;;;;65.13;13.88;;;7.00;99.90;;;5.45;100.00;102935.38;4849790;29;20489;-83
2021/11/09 05:24:30;;;;;;;47.78;13.90;;;;;;;5.50;100.00;102938.88;4820809;29;20071;-84
2021/11/09 05:26:56;;;;;;;60.40;19.55;;;7.00;99.90;;;5.48;100.00;102934.50;4847650;29;20039;-83
2021/11/09 05:29:22;;;;;;;56.40;14.02;;;7.10;99.90;;;5.52;100.00;102942.41;4851233;29;20031;-83
2021/11/09 05:31:59;;;;;;;57.80;14.73;;;7.10;99.90;;;5.44;100.00;102933.63;4804621;29;20024;-83
2021/11/09 05:34:28;;;;;;;56.42;13.15;;;7.10;99.90;;;5.57;100.00;102952.03;4826159;29;20169;-82
2021/11/09 05:36:58;;;;;;;51.90;13.35;;;7.00;99.90;;;5.50;100.00;102938.88;4809261;29;20040;-82
2021/11/09 05:39:45;;;;;;;56.65;15.20;;;7.10;99.90;;;5.52;100.00;102946.75;4835579;28;20127;-83
2021/11/09 05:42:21;;;;;;;58.95;15.63;;;7.00;99.90;;;5.51;100.00;102951.13;4832216;29;20118;-84
2021/11/09 05:44:47;;;;;;;58.72;15.60;;;7.00;99.90;;;5.59;100.00;102953.78;4843782;29;20044;-83
2021/11/09 05:47:14;;;;;;;69.32;17.23;;;7.10;99.90;;;5.48;100.00;102948.44;4827906;28;20127;-83
2021/11/09 05:49:47;;;;;;;63.75;15.45;;;;;;;5.52;100.00;102949.38;4826657;29;20434;-83
2021/11/09 05:52:13;;;;;;;68.32;17.20;;;7.10;99.90;;;5.48;100.00;102956.28;4840311;29;20036;-84
2021/11/09 05:54:40;;;;;;;63.72;16.85;;;;;;;5.44;100.00;102949.31;4857213;29;20092;-83
2021/11/09 05:57:06;;;;;;;69.25;17.70;;;;;;;5.47;100.00;102957.16;4858133;29;20110;-83
2021/11/09 05:59:43;;;;;;;77.72;18.05;;;7.10;99.90;;;5.51;100.00;102965.91;4815550;29;20040;-84
2021/11/09 06:02:09;;;;;;;69.05;18.30;;;7.10;99.90;;;5.46;100.00;102968.47;4885028;29;20039;-83
2021/11/09 06:04:42;;;;;;;68.13;17.63;;;7.10;99.90;;;5.48;100.00;102966.75;4865170;28;20399;-83
2021/11/09 06:07:08;;;;;;;61.70;16.33;;;;;;;5.49;100.00;102976.34;4837150;29;20489;-83
2021/11/09 06:09:34;;;;;;;66.57;16.40;;;7.10;99.90;;;5.59;100.00;102989.50;4828229;29;20045;-84
2021/11/09 06:12:00;;;;;;;72.30;17.27;;;7.10;99.90;;;5.53;100.00;103004.28;4832686;29;20044;-83
2021/11/09 06:14:27;;;;;;;71.32;17.17;;;7.10;99.90;;;5.51;100.00;102998.16;4826740;29;20040;-83
2021/11/09 06:17:01;;;;;;;70.63;18.10;;;7.10;99.90;;;5.64;100.00;103012.22;4856854;28;20051;-83
2021/11/09 06:19:27;;;;;;;70.00;17.13;;;7.10;99.90;;;5.60;100.00;103007.81;4845774;29;20041;-83
2021/11/09 06:21:53;;;;;;;76.43;16.80;;;7.10;99.90;;;5.66;100.00;103007.91;4837909;28;20530;-83
2021/11/09 06:24:26;;;;;;;77.10;17.98;;;7.20;99.90;;;5.59;100.00;103000.81;4835752;29;20392;-83
2021/11/09 06:26:53;;;;;;;64.47;16.52;;;7.20;99.90;;;5.63;100.00;103009.59;4842131;29;20032;-82
2021/11/09 06:29:20;;;;;;;64.43;17.02;;;7.20;99.90;;;5.66;100.00;103012.22;4834571;29;20035;-83
2021/11/09 06:31:46;;;;;;;75.07;17.90;;;;;;;5.64;100.00;103017.47;4847824;29;21136;-83
2021/11/09 06:34:21;;;;;;;86.75;18.77;;;;;;;5.69;100.00;103027.94;4839640;28;20392;-83
2021/11/09 06:36:47;;;;;;;78.47;18.00;;;7.30;99.90;;;5.74;100.00;103028.88;4853362;28;20571;-83
2021/11/09 06:39:13;;;;;;;73.20;18.10;;;7.30;99.90;;;5.70;100.00;103030.59;4849302;29;20080;-83
2021/11/09 06:41:49;;;;;;;79.90;17.10;;;;;;;5.67;100.00;103027.06;4851598;29;20044;-83
2021/11/09 06:44:15;;;;;;;75.83;18.93;;;7.20;99.90;;;5.73;100.00;103046.28;4827581;29;20046;-83
2021/11/09 06:46:41;;;;;;;73.35;16.60;;;7.20;99.90;;;5.73;100.00;103040.19;4841517;29;20032;-85
2021/11/09 06:49:16;;;;;;;67.72;17.48;;;7.30;99.90;;;5.79;100.00;103058.56;4809932;29;20036;-83
2021/11/09 06:51:43;;;;;;;73.20;18.15;;;7.30;99.90;;;5.71;100.00;103042.78;4821266;29;20052;-83
2021/11/09 06:54:09;;;;;;;73.57;17.05;;;7.30;99.90;;;5.77;100.00;103042.00;4848197;29;20197;-82
2021/11/09 06:56:45;;;;;;;97.65;19.50;;;7.30;99.90;;;5.77;100.00;103044.59;4835301;28;20485;-83
2021/11/09 06:59:11;;;;;;;69.50;17.83;;;7.30;99.90;;;5.80;100.00;103046.38;4839013;28;20048;-82
2021/11/09 07:01:37;;;;;;;73.72;17.52;;;7.40;99.90;;;5.82;100.00;103058.59;4851574;28;20036;-83
2021/11/09 07:04:15;;;;;;;68.53;17.77;;;7.40;99.90;;;5.80;100.00;103055.06;4823916;29;20039;-84
2021/11/09 07:06:41;;;;;;;66.22;18.77;;;7.40;99.90;;;5.88;100.00;103066.50;4837845;29;20738;-83
2021/11/09 07:09:18;;;;;;;77.28;18.80;;;7.40;99.90;;;5.89;100.00;103072.59;4812117;29;20115;-82
2021/11/09 07:11:45;;;;;;;76.82;19.30;;;7.40;99.90;;;5.98;100.00;103069.22;4863164;29;20090;-83
2021/11/09 07:14:17;;;;;;;63.70;17.85;;;7.50;99.90;;;5.99;100.00;103066.66;4820000;29;20099;-82
2021/11/09 07:16:45;;;;;;;66.00;18.25;;;7.50;99.90;;;6.01;100.00;103056.22;4843345;29;20078;-82
2021/11/09 07:19:14;;;;;;;78.70;17.08;;;7.50;99.90;;;5.94;100.00;103050.00;4830851;29;20128;-82
2021/11/09 07:21:46;;;;;;;69.25;17.00;;;7.50;99.90;;;6.01;100.00;103046.63;4830059;29;20039;-82
2021/11/09 07:24:13;;;;;;;62.95;16.98;;;7.50;99.90;;;6.02;100.00;103048.34;4799039;29;20035;-82
2021/11/09 07:26:39;;;;;;;74.78;18.20;;;7.50;99.90;;;6.03;100.00;103052.75;4850844;29;20035;-82
2021/11/09 07:29:05;;;;;;;65.85;18.83;;;7.60;99.90;;;6.11;100.00;103063.25;4835323;29;20051;-82
2021/11/09 07:31:38;;;;;;;67.43;16.80;;;7.70;99.90;;;6.14;100.00;103074.63;4836775;29;20110;-82
2021/11/09 07:34:05;;;;;;;73.55;16.60;;;7.70;99.90;;;6.20;100.00;103075.53;4849899;28;20682;-82
2021/11/09 07:36:32;;;;;;;63.35;18.00;;;7.70;99.90;;;6.26;100.00;103084.31;4830154;29;20529;-82
2021/11/09 07:38:58;;;;;;;54.17;17.27;;;7.70;99.90;;;6.27;100.00;103070.41;4815409;29;20041;-82
2021/11/09 07:41:32;;;;;;;55.40;16.08;;;7.80;99.90;;;6.27;100.00;103078.25;4815976;29;20035;-83
2021/11/09 07:43:58;;;;;;;63.17;17.02;;;7.80;99.90;;;6.32;100.00;103075.66;4872576;29;20404;-82
2021/11/09 07:46:28;;;;;;;56.55;15.63;;;7.80;99.90;;;6.32;100.00;103075.66;4828191;29;20072;-81
2021/11/09 07:48:57;;;;;;;66.32;17.10;;;7.90;99.90;;;6.34;100.00;103046.03;4821312;29;20044;-81
2021/11/09 07:51:23;;;;;;;64.20;16.02;;;7.90;99.90;;;6.40;100.00;103054.81;4842243;29;20029;-83
2021/11/09 07:53:50;;;;;;;56.60;15.73;;;8.00;99.90;;;6.46;100.00;103057.47;4837950;29;20044;-82
2021/11/09 07:56:25;;;;;;;72.05;15.82;;;;;;;6.51;100.00;103047.91;4843395;29;20417;-82
2021/11/09 07:59:00;;;;;;;57.50;16.40;;;8.00;99.90;;;6.55;100.00;103060.16;4826310;29;20047;-82
2021/11/09 08:02:01;;;;;;;60.13;16.60;;;8.10;99.90;;;6.60;100.00;103061.06;4815046;29;20100;-81
2021/11/09 08:07:19;;;;;;;47.72;16.15;;;;;;;6.72;100.00;103089.94;4812670;29;20543;-82
2021/11/09 08:10:05;;;;;;;54.28;15.52;;;8.30;99.90;;;6.79;100.00;103096.09;4851499;29;20043;-82
2021/11/09 08:12:34;;;;;;;53.97;15.13;;;8.30;99.90;;;6.80;100.00;103086.50;4833917;29;20045;-82
2021/11/09 08:15:07;;;;;;;42.00;13.98;;;8.30;99.90;;;6.82;100.00;103079.53;4843256;28;20032;-82
2021/11/09 08:17:34;;;;;;;42.47;14.10;;;8.30;99.90;;;6.90;100.00;103078.72;4857743;29;20035;-82
2021/11/09 08:20:00;;;;;;;46.72;13.25;;;8.40;99.90;;;6.90;100.00;103067.38;4862257;29;20024;-82
2021/11/09 08:22:55;;;;;;;46.25;14.52;;;8.40;99.90;;;6.92;100.00;103070.88;4843474;29;20400;-82
2021/11/09 08:25:22;;;;;;;42.33;13.20;;;9.70;99.90;;;6.94;100.00;103064.78;4854286;29;20044;-82
2021/11/09 08:27:54;;;;;;;38.25;11.80;;;8.50;99.90;;;6.96;100.00;103060.41;4805066;29;20124;-83
2021/11/09 08:30:21;;;;;;;40.70;12.07;;;8.50;99.90;;;6.98;100.00;103060.44;4848705;29;20029;-83
2021/11/09 08:33:03;;;;;;;39.83;12.18;;;8.50;99.90;;;6.95;100.00;103049.94;4825306;29;20028;-83
2021/11/09 08:35:31;;;;;;;35.50;11.27;;;8.50;99.90;;;7.00;100.00;103071.81;4855568;29;20032;-84
2021/11/09 08:38:00;;;;;;;32.10;10.88;;;8.50;99.90;;;7.02;100.00;103061.31;4828341;29;20045;-84
2021/11/09 08:40:44;;;;;;;24.13;9.00;;;8.50;99.90;;;7.07;100.00;103065.72;4855141;28;20051;-84
2021/11/09 08:43:15;;;;;;;27.17;9.57;;;;;;;7.05;100.00;103061.34;4846579;28;20040;-84
2021/11/09 08:45:56;;;;;;;22.83;8.38;;;8.50;99.90;;;7.14;100.00;103066.63;4841230;29;20039;-84
2021/11/09 08:48:25;;;;;;;22.13;8.10;;;8.60;99.90;;;7.17;100.00;103067.53;4854319;29;20047;-83
2021/11/09 08:51:07;;;;;;;28.58;9.48;;;8.70;99.90;;;7.23;100.00;103061.41;4831573;29;20098;-83
2021/11/09 08:53:57;;;;;;;26.80;9.10;;;8.70;99.90;;;7.33;100.00;103068.47;4853964;29;20046;-84
2021/11/09 09:04:55;;;;;;;22.45;7.55;;;9.00;99.90;;;7.52;100.00;103069.41;4836288;29;20156;-84
2021/11/09 09:07:27;;;;;;;20.58;7.35;;;8.90;99.90;;;7.54;100.00;103066.81;4824360;29;20552;-85
2021/11/09 09:09:56;;;;;;;20.30;6.80;;;9.00;99.90;;;7.67;100.00;103093.94;4830228;29;20047;-85
2021/11/09 09:12:32;;;;;;;22.70;8.27;;;9.20;99.90;;;7.81;100.00;103081.75;4881551;29;20126;-84
2021/11/09 09:14:59;;;;;;;26.48;7.93;;;9.30;99.90;;;8.06;100.00;103101.03;4832749;29;20049;-84
2021/11/09 09:17:30;;;;;;;25.70;8.82;;;9.50;99.90;;;8.34;100.00;103112.44;4838764;28;20095;-84
2021/11/09 09:20:06;;;;;;;22.55;7.53;;;9.70;99.90;;;8.62;100.00;103116.00;4845326;29;20531;-84
2021/11/09 09:23:02;;;;;;;27.15;8.48;;;;;;;8.86;100.00;103137.00;4822032;29;20990;-83
2021/11/09 09:28:31;;;;;;;28.33;9.13;;;10.00;99.90;;;8.59;100.00;103047.69;4813363;29;20146;-84
2021/11/09 09:56:44;;;;;;;17.27;7.20;;;10.10;99.90;;;8.83;100.00;103082.69;4861246;28;20032;-84
2021/11/09 09:59:15;;;;;;;14.95;6.88;;;10.10;99.90;;;8.79;100.00;103068.69;4849153;29;20057;-83
2021/11/09 10:01:44;;;;;;;15.52;7.32;;;10.20;99.90;;;8.78;100.00;103074.81;4823617;29;20108;-84
2021/11/09 10:04:34;;;;;;;16.35;7.05;;;10.10;99.90;;;8.74;100.00;103048.56;4808215;29;20510;-84
2021/11/09 10:07:47;;;;;;;;;;;;;;;;;;;;;
2021/11/09 10:10:25;;;;;;;11.65;5.95;;;9.90;99.90;;;8.52;100.00;103022.31;4844794;29;21406;-83
2021/11/09 10:13:10;;;;;;;16.05;6.15;;;9.90;99.90;;;8.42;100.00;103017.97;4840933;29;20028;-84
2021/11/09 10:15:49;;;;;;;14.98;7.25;;;9.80;99.90;;;8.39;100.00;103018.81;4822181;29;20036;-84
2021/11/09 10:18:24;;;;;;;17.00;7.07;;;9.80;99.90;;;8.43;100.00;103019.72;4863424;29;20214;-84
2021/11/09 10:21:02;;;;;;;12.07;6.22;;;9.80;99.90;;;8.45;100.00;103022.34;4840351;29;20050;-83
2021/11/09 10:23:34;;;;;;;19.70;7.30;;;9.80;99.90;;;8.45;100.00;103023.22;4844754;29;20035;-84
2021/11/09 10:26:24;;;;;;;14.55;6.65;;;9.80;99.90;;;8.42;100.00;103025.84;4836412;28;20119;-83
2021/11/09 10:28:51;;;;;;;13.20;5.93;;;9.70;99.90;;;8.30;100.00;102997.81;4813632;29;20049;-83
2021/11/09 10:31:23;;;;;;;18.25;6.53;;;9.70;99.90;;;8.40;100.00;103006.53;4828557;29;20036;-83
2021/11/09 10:33:58;;;;;;;14.45;6.07;;;9.80;99.90;;;8.47;100.00;103015.34;4840362;29;20036;-84
2021/11/09 10:36:30;;;;;;;13.73;6.88;;;9.80;99.90;;;8.49;100.00;103013.56;4846214;28;20031;-84
2021/11/09 10:39:22;;;;;;;12.70;6.38;;;10.00;99.90;;;8.63;100.00;103033.69;4841170;29;20043;-84
2021/11/09 10:42:10;;;;;;;18.08;6.32;;;10.00;99.90;;;8.68;100.00;103014.41;4805467;29;20543;-84
2021/11/09 10:44:39;;;;;;;14.75;5.55;;;10.10;99.90;;;8.77;100.00;103023.16;4822543;29;20044;-84
2021/11/09 10:47:31;;;;;;;12.82;5.68;;;10.10;99.90;;;8.80;100.00;103015.25;4800388;29;20114;-84
2021/11/09 10:50:22;;;;;;;12.20;5.13;;;10.20;99.90;;;8.85;100.00;103007.38;4845761;29;20035;-84
2021/11/09 10:56:36;;;;;;;8.77;4.30;;;10.30;99.90;;;9.07;100.00;103034.47;4845275;29;20028;-84
2021/11/09 11:04:39;;;;;;;8.40;3.88;;;10.30;99.90;;;8.90;100.00;102984.59;4855461;28;20064;-84
2021/11/09 11:07:19;;;;;;;8.63;3.03;;;10.30;99.90;;;8.90;100.00;102989.84;4844019;28;20054;-84
2021/11/09 11:10:03;;;;;;;7.43;3.22;;;10.30;99.90;;;8.91;100.00;102986.34;4845297;28;20047;-84
2021/11/09 11:12:56;;;;;;;6.70;3.17;;;10.30;99.90;;;8.89;100.00;102981.97;4898633;29;20048;-84
2021/11/09 11:15:31;;;;;;;8.73;2.90;;;10.20;99.90;;;8.82;100.00;102965.34;4833495;29;20040;-83
2021/11/09 11:17:58;;;;;;;8.43;3.10;;;10.20;99.90;;;8.79;100.00;102957.47;4892756;29;20094;-84
2021/11/09 11:20:30;;;;;;;5.65;3.03;;;;;;;8.76;100.00;102958.34;4881186;28;20044;-85
2021/11/09 11:22:57;;;;;;;5.82;3.03;;;;;;;8.81;100.00;102966.22;4824636;29;20055;-85
2021/11/09 11:25:28;;;;;;;8.60;2.75;;;10.20;99.90;;;8.82;100.00;102966.22;4819325;28;21000;-84
2021/11/09 11:28:02;;;;;;;6.68;2.72;;;10.20;99.90;;;8.88;100.00;102962.72;4836393;29;20052;-84
2021/11/09 11:30:30;;;;;;;10.35;3.35;;;10.30;99.90;;;8.92;100.00;102960.94;4817411;29;20460;-85
2021/11/09 11:33:06;;;;;;;6.75;3.38;;;10.30;99.90;;;8.96;100.00;102962.66;4832974;28;20740;-84
2021/11/09 11:35:35;;;;;;;10.05;3.92;;;10.30;99.90;;;8.89;100.00;102950.44;4814074;29;20042;-85
2021/11/09 11:38:14;;;;;;;12.32;3.70;;;10.20;99.90;;;8.84;100.00;102950.47;4833814;29;20054;-85
2021/11/09 11:41:06;;;;;;;12.73;3.47;;;10.20;99.90;;;8.82;100.00;102987.25;4826248;29;20039;-84
2021/11/09 11:44:20;;;;;;;;;;;;;;;;;;;;;
2021/11/09 11:55:48;;;;;;;9.85;3.92;;;10.30;99.90;;;8.86;100.00;102958.34;4768608;29;20145;-89
2021/11/09 11:59:41;;;;;;;10.90;3.58;;;10.30;99.90;;;8.92;100.00;102961.81;4737531;29;20683;-88
2021/11/09 12:03:32;;;;;;;11.90;3.60;;;10.30;99.90;;;8.90;100.00;102946.91;4732933;29;20041;-88
2021/11/09 12:07:05;;;;;;;18.40;4.65;;;10.30;99.90;;;8.91;100.00;102946.06;4811229;29;20055;-84
2021/11/09 12:09:55;;;;;;;8.70;3.30;;;10.30;99.90;;;8.95;100.00;102951.28;4795115;29;20048;-84
2021/11/09 12:13:09;;;;;;;7.03;3.88;;;10.30;99.90;;;9.04;100.00;102960.88;4786251;29;20033;-86
2021/11/09 12:19:48;;;;;;;12.60;4.30;;;;;;;9.17;100.00;102951.19;4813933;29;20100;-89
2021/11/09 12:23:21;;;;;;;12.18;4.32;;;10.70;99.90;;;9.42;100.00;102979.09;4833770;29;20119;-88
2021/11/09 12:25:57;;;;;;;10.02;4.13;;;10.70;99.90;;;9.31;100.00;102948.47;4818616;29;20050;-89
2021/11/09 12:28:37;;;;;;;;;;;10.70;99.90;;;9.37;100.00;103143.00;4813132;29;20047;-88
2021/11/09 12:31:16;;;;;;;14.02;3.83;;;;;;;9.34;100.00;103061.53;4852505;29;19920;-89
2021/11/09 12:33:57;;;;;;;8.45;3.92;;;10.70;99.90;;;9.37;100.00;103053.63;4824243;29;20385;-88
2021/11/09 12:36:34;;;;;;;9.38;4.10;;;;;;;9.33;100.00;103007.19;4822150;29;20430;-90
2021/11/09 12:39:00;;;;;;;12.30;4.28;;;10.60;99.90;;;9.18;100.00;102982.72;4832521;29;20096;-88
2021/11/09 12:41:37;;;;;;;7.90;3.85;;;;;;;9.23;100.00;102978.31;4814145;29;20397;-87
2021/11/09 12:44:23;;;;;;;16.02;4.50;;;10.60;99.90;;;9.21;100.00;102966.94;4842294;29;20638;-88
2021/11/09 12:47:13;;;;;;;13.10;4.25;;;10.60;99.90;;;9.16;100.00;102946.81;4864036;29;20154;-87
2021/11/09 12:49:40;;;;;;;14.77;5.10;;;;;;;9.14;100.00;102946.81;4847166;29;20391;-87
2021/11/09 12:52:06;;;;;;;14.05;5.03;;;10.50;99.90;;;9.24;100.00;102968.66;4869700;29;20039;-88
2021/11/09 12:54:42;;;;;;;17.00;5.63;;;;;;;9.29;100.00;102984.41;4866229;29;20036;-87
2021/11/09 12:57:08;;;;;;;9.73;4.60;;;10.60;99.90;;;9.32;100.00;102984.41;4861972;28;20055;-86
2021/11/09 12:59:54;;;;;;;12.38;5.50;;;;;;;9.37;100.00;103024.69;4826345;29;20115;-88
2021/11/09 13:02:49;;;;;;;13.50;4.43;;;;;;;9.36;100.00;102971.22;4840480;28;20045;-86
2021/11/09 13:05:28;;;;;;;14.13;4.65;;;;;;;9.43;100.00;102975.56;4857340;28;20054;-87
2021/11/09 13:08:25;;;;;;;12.35;4.50;;;;;;;9.43;100.00;102962.41;4825760;29;20519;-87
2021/11/09 13:11:00;;;;;;;14.45;4.22;;;10.60;99.90;;;9.35;100.00;102945.84;4810699;29;20437;-87
2021/11/09 13:13:26;;;;;;;15.05;4.32;;;10.70;99.90;;;9.29;100.00;102940.63;4851488;29;20039;-86
2021/11/09 13:16:01;;;;;;;10.07;4.00;;;10.60;99.90;;;9.19;100.00;102931.03;4841067;29;20039;-87